createdAt,value
2019-03-01T05:01:13.308Z,90.97
2019-03-01T05:03:42.582Z,87.80
2019-03-01T05:06:11.352Z,89.90
2019-03-01T05:08:40.639Z,84.30
2019-03-01T05:11:09.953Z,82.60
2019-03-01T05:13:38.731Z,83.73
2019-03-01T05:16:07.756Z,85.37
2019-03-01T05:18:36.540Z,90.97
2019-03-01T05:21:05.613Z,87.40
2019-03-01T05:23:34.700Z,92.23
2019-03-01T05:26:03.540Z,92.57
2019-03-01T05:28:32.357Z,89.80
2019-03-01T05:31:01.242Z,90.70
2019-03-01T05:33:30.244Z,93.50
2019-03-01T05:35:59.402Z,92.77
2019-03-01T05:38:28.247Z,91.00
2019-03-01T05:40:57.010Z,80.30
2019-03-01T05:43:26.034Z,80.80
2019-03-01T05:45:54.797Z,66.20
2019-03-01T05:48:23.920Z,29.87
2019-03-01T05:50:52.684Z,19.07
2019-03-01T05:53:21.488Z,15.10
2019-03-01T05:55:50.512Z,15.27
2019-03-01T05:58:27.869Z,13.73
2019-03-01T06:00:59.093Z,13.93
2019-03-01T06:03:55.499Z,12.70
2019-03-01T06:06:30.770Z,12.47
2019-03-01T06:09:24.058Z,13.17
2019-03-01T06:12:06.043Z,12.30
2019-03-01T06:14:53.808Z,11.77
2019-03-01T06:17:50.659Z,11.77
2019-03-01T06:20:27.956Z,11.33
2019-03-01T06:23:35.240Z,11.80
2019-03-01T06:26:36.510Z,11.47
2019-03-01T06:29:19.188Z,11.10
2019-03-01T06:32:30.612Z,10.83
2019-03-01T06:35:33.875Z,11.80
2019-03-01T06:39:05.180Z,11.00
2019-03-01T06:42:17.344Z,11.03
2019-03-01T06:45:36.768Z,10.53
2019-03-01T06:48:05.595Z,9.90
2019-03-01T06:50:41.680Z,9.80
2019-03-01T06:53:10.492Z,9.73
2019-03-01T06:55:59.764Z,9.47
2019-03-01T06:58:34.233Z,9.53
2019-03-01T07:01:17.264Z,10.17
2019-03-01T07:03:50.040Z,9.50
2019-03-01T07:06:18.824Z,9.37
2019-03-01T07:08:47.599Z,9.77
2019-03-01T07:11:16.711Z,10.33
2019-03-01T07:13:45.508Z,10.20
2019-03-01T07:16:14.555Z,10.23
2019-03-01T07:18:43.840Z,9.87
2019-03-01T07:21:12.687Z,9.13
2019-03-01T07:23:41.951Z,9.70
2019-03-01T07:26:11.049Z,9.17
2019-03-01T07:28:40.001Z,9.10
2019-03-01T07:31:08.779Z,9.43
2019-03-01T07:33:37.543Z,8.53
2019-03-01T07:36:06.343Z,10.20
2019-03-01T07:38:35.433Z,9.00
2019-03-01T07:41:04.286Z,10.40
2019-03-01T07:43:33.300Z,9.00
2019-03-01T07:46:02.593Z,8.50
2019-03-01T07:48:31.682Z,8.67
2019-03-01T07:51:02.449Z,8.30
2019-03-01T07:53:31.622Z,8.57
2019-03-01T07:56:00.778Z,8.30
2019-03-01T07:58:31.281Z,8.87
2019-03-01T08:01:00.577Z,9.47
2019-03-01T08:03:29.370Z,9.53
2019-03-01T08:05:58.207Z,9.80
2019-03-01T08:08:26.968Z,10.03
2019-03-01T08:10:56.388Z,10.60
2019-03-01T08:13:26.896Z,10.30
2019-03-01T08:15:56.639Z,9.90
2019-03-01T08:18:25.812Z,10.33
2019-03-01T08:20:54.856Z,11.03
2019-03-01T08:23:24.205Z,11.20
2019-03-01T08:25:55.589Z,11.20
2019-03-01T08:28:23.821Z,10.47
2019-03-01T08:30:52.944Z,10.97
2019-03-01T08:33:21.723Z,10.90
2019-03-01T08:35:51.062Z,11.73
2019-03-01T08:38:20.187Z,11.00
2019-03-01T08:40:49.935Z,11.03
2019-03-01T08:43:19.821Z,10.37
2019-03-01T08:45:48.848Z,10.23
2019-03-01T08:48:17.866Z,10.87
2019-03-01T08:50:46.700Z,10.93
2019-03-01T08:53:16.153Z,11.47
2019-03-01T08:55:44.989Z,11.23
2019-03-01T08:58:13.863Z,11.80
2019-03-01T09:00:43.000Z,12.67
2019-03-01T09:03:22.125Z,13.17
2019-03-01T09:05:50.079Z,12.70
2019-03-01T09:08:19.503Z,13.20
2019-03-01T09:10:48.912Z,14.13
2019-03-01T09:13:17.716Z,14.00
2019-03-01T09:15:49.415Z,14.80
2019-03-01T09:18:17.492Z,14.70
2019-03-01T09:20:46.623Z,15.53
2019-03-01T09:23:22.816Z,15.10
2019-03-01T09:25:46.013Z,16.20
2019-03-01T09:28:14.864Z,15.87
2019-03-01T09:30:44.454Z,14.87
2019-03-01T09:33:17.277Z,14.87
2019-03-01T09:36:14.488Z,14.53
2019-03-01T09:38:43.724Z,13.53
2019-03-01T09:41:12.812Z,13.57
2019-03-01T09:43:41.760Z,13.37
2019-03-01T09:46:10.601Z,13.33
2019-03-01T09:48:39.884Z,12.17
2019-03-01T09:51:10.671Z,12.17
2019-03-01T09:53:39.252Z,13.87
2019-03-01T09:56:09.782Z,12.70
2019-03-01T09:58:39.285Z,13.23
2019-03-01T10:01:14.129Z,12.83
2019-03-01T10:03:43.132Z,13.47
2019-03-01T10:06:12.248Z,13.17
2019-03-01T10:08:41.354Z,13.83
2019-03-01T10:11:10.970Z,13.37
2019-03-01T10:13:40.292Z,12.67
2019-03-01T10:16:09.470Z,12.30
2019-03-01T10:18:38.612Z,11.97
2019-03-01T10:21:07.457Z,12.97
2019-03-01T10:23:36.227Z,12.47
2019-03-01T10:26:05.173Z,12.90
2019-03-01T10:28:34.452Z,13.60
2019-03-01T10:31:03.796Z,13.60
2019-03-01T10:33:32.663Z,14.47
2019-03-01T10:36:01.523Z,15.40
2019-03-01T10:38:30.316Z,15.43
2019-03-01T10:40:59.087Z,15.60
2019-03-01T10:43:28.372Z,17.13
2019-03-01T10:45:57.138Z,17.23
2019-03-01T10:48:27.436Z,18.17
2019-03-01T10:50:56.603Z,19.33
2019-03-01T10:53:25.482Z,18.13
2019-03-01T10:55:54.760Z,20.10
2019-03-01T10:58:23.856Z,18.50
2019-03-01T11:00:52.718Z,18.63
2019-03-01T11:03:21.687Z,18.40
2019-03-01T11:05:50.560Z,17.37
2019-03-01T11:08:19.593Z,17.80
2019-03-01T11:10:48.449Z,18.23
2019-03-01T11:13:17.603Z,17.10
2019-03-01T11:15:46.397Z,17.53
2019-03-01T11:18:15.468Z,17.37
2019-03-01T11:20:44.245Z,16.93
2019-03-01T11:23:13.640Z,16.43
2019-03-01T11:25:42.672Z,16.73
2019-03-01T11:28:11.797Z,17.37
2019-03-01T11:30:41.068Z,17.17
2019-03-01T11:33:10.163Z,16.70
2019-03-01T11:35:39.336Z,17.07
2019-03-01T11:38:08.232Z,17.33
2019-03-01T11:40:37.432Z,16.37
2019-03-01T11:43:06.656Z,17.90
2019-03-01T11:45:35.723Z,16.47
2019-03-01T11:48:05.087Z,17.07
2019-03-01T11:50:34.011Z,17.90
2019-03-01T11:53:02.831Z,16.57
2019-03-01T11:55:31.615Z,17.13
2019-03-01T11:58:00.477Z,19.13
2019-03-01T12:00:29.752Z,17.97
2019-03-01T12:02:58.694Z,20.80
2019-03-01T12:05:27.974Z,17.50
2019-03-01T12:07:57.244Z,18.20
2019-03-01T12:10:26.740Z,18.23
2019-03-01T12:12:55.608Z,18.47
2019-03-01T12:15:24.760Z,18.83
2019-03-01T12:17:53.548Z,19.07
2019-03-01T12:20:22.633Z,18.70
2019-03-01T12:22:51.764Z,20.30
2019-03-01T12:25:20.852Z,19.17
2019-03-01T12:27:49.915Z,18.90
2019-03-01T12:30:20.107Z,18.90
2019-03-01T12:32:48.867Z,18.00
2019-03-01T12:35:17.803Z,18.80
2019-03-01T12:37:46.811Z,18.70
2019-03-01T12:40:18.105Z,18.10
2019-03-01T12:42:47.461Z,18.97
2019-03-01T12:45:16.342Z,18.77
2019-03-01T12:47:45.416Z,20.50
2019-03-01T12:50:14.616Z,18.67
2019-03-01T12:52:43.763Z,19.50
2019-03-01T12:55:14.945Z,18.93
2019-03-01T12:57:44.327Z,18.50
2019-03-01T13:00:18.445Z,20.30
2019-03-01T13:02:47.384Z,18.87
2019-03-01T13:05:16.236Z,18.53
2019-03-01T13:07:45.027Z,19.13
2019-03-01T13:10:16.731Z,18.73
2019-03-01T13:12:45.831Z,19.07
2019-03-01T13:15:14.777Z,19.87
2019-03-01T13:17:44.139Z,18.97
2019-03-01T13:20:14.342Z,21.30
2019-03-01T13:22:43.185Z,20.50
2019-03-01T13:25:12.083Z,20.43
2019-03-01T13:27:40.998Z,16.40
2019-03-01T13:30:14.905Z,9.07
2019-03-01T13:32:43.745Z,8.37
2019-03-01T13:35:13.225Z,7.23
2019-03-01T13:37:42.271Z,8.23
2019-03-01T13:40:12.674Z,9.50
2019-03-01T13:42:41.868Z,9.07
2019-03-01T13:45:15.058Z,9.90
2019-03-01T13:47:44.794Z,10.17
2019-03-01T13:50:14.667Z,10.50
2019-03-01T13:52:43.761Z,9.43
2019-03-01T13:55:14.746Z,10.27
2019-03-01T13:57:45.974Z,12.30
2019-03-01T14:00:16.575Z,14.20
2019-03-01T14:02:46.839Z,14.80
2019-03-01T14:05:17.331Z,15.43
2019-03-01T14:07:46.475Z,15.93
2019-03-01T14:10:18.439Z,16.83
2019-03-01T14:12:47.219Z,15.47
2019-03-01T14:15:16.850Z,16.73
2019-03-01T14:17:45.995Z,16.53
2019-03-01T14:20:20.462Z,16.67
2019-03-01T14:22:47.856Z,15.00
2019-03-01T14:25:18.202Z,14.70
2019-03-01T14:27:47.147Z,14.30
2019-03-01T14:30:20.175Z,16.17
2019-03-01T14:32:49.029Z,15.17
2019-03-01T14:35:20.535Z,16.17
2019-03-01T14:37:54.213Z,16.63
2019-03-01T14:40:22.491Z,17.63
2019-03-01T14:42:50.627Z,15.87
2019-03-01T14:45:21.480Z,16.37
2019-03-01T14:47:50.632Z,16.77
2019-03-01T14:50:21.287Z,16.10
2019-03-01T14:52:56.926Z,15.80
2019-03-01T14:55:24.092Z,17.20
2019-03-01T14:57:56.511Z,15.83
2019-03-01T15:00:35.589Z,14.00
2019-03-01T15:03:19.639Z,13.07
2019-03-01T15:05:48.480Z,13.03
2019-03-01T15:08:17.769Z,12.40
2019-03-01T15:10:46.863Z,11.30
2019-03-01T15:13:15.992Z,12.20
2019-03-01T15:15:44.832Z,11.43
2019-03-01T15:18:13.599Z,10.30
2019-03-01T15:20:42.771Z,10.03
2019-03-01T15:23:11.614Z,11.00
2019-03-01T15:25:40.383Z,9.97
2019-03-01T15:28:09.153Z,10.30
2019-03-01T15:30:38.201Z,10.93
2019-03-01T15:33:08.406Z,10.77
2019-03-01T15:35:39.774Z,11.57
2019-03-01T15:38:08.655Z,12.67
2019-03-01T15:40:37.691Z,13.70
2019-03-01T15:43:06.461Z,14.07
2019-03-01T15:45:36.699Z,16.50
2019-03-01T15:48:06.413Z,15.90
2019-03-01T15:50:35.179Z,16.67
2019-03-01T15:53:04.055Z,17.10
2019-03-01T15:55:33.080Z,19.47
2019-03-01T15:58:03.118Z,27.03
2019-03-01T16:00:31.952Z,32.30
2019-03-01T16:03:00.806Z,35.23
2019-03-01T16:05:29.904Z,35.53
2019-03-01T16:07:58.692Z,37.57
2019-03-01T16:10:27.536Z,40.10
2019-03-01T16:12:56.321Z,46.40
2019-03-01T16:15:25.484Z,46.43
2019-03-01T16:17:54.259Z,46.13
2019-03-01T16:20:25.124Z,46.93
2019-03-01T16:22:54.041Z,47.87
2019-03-01T16:25:24.152Z,51.80
2019-03-01T16:27:54.189Z,49.97
2019-03-01T16:30:23.776Z,49.37
2019-03-01T16:32:52.879Z,50.23
2019-03-01T16:35:21.749Z,48.90
2019-03-01T16:37:51.251Z,50.27
2019-03-01T16:40:20.272Z,49.83
2019-03-01T16:42:53.081Z,51.50
2019-03-01T16:45:21.188Z,47.90
2019-03-01T16:47:50.347Z,49.33
2019-03-01T16:50:19.466Z,46.33
2019-03-01T16:52:48.612Z,48.23
2019-03-01T16:55:17.752Z,50.37
2019-03-01T16:57:48.589Z,48.53
2019-03-01T17:00:19.161Z,50.03
2019-03-01T17:02:48.224Z,47.63
2019-03-01T17:05:17.144Z,49.93
2019-03-01T17:07:46.359Z,49.87
2019-03-01T17:10:17.385Z,50.63
2019-03-01T17:12:48.864Z,50.77
2019-03-01T17:15:18.708Z,49.73
2019-03-01T17:17:47.803Z,49.87
2019-03-01T17:20:17.411Z,49.60
2019-03-01T17:22:46.444Z,48.23
2019-03-01T17:25:16.792Z,48.37
2019-03-01T17:27:45.712Z,49.30
2019-03-01T17:30:17.831Z,48.07
2019-03-01T17:32:47.260Z,46.97
2019-03-01T17:35:16.208Z,47.60
2019-03-01T17:37:44.993Z,46.13
2019-03-01T17:40:15.673Z,47.33
2019-03-01T17:42:44.975Z,38.90
2019-03-01T17:45:17.345Z,25.30
2019-03-01T17:47:46.283Z,23.20
2019-03-01T17:50:15.304Z,23.73
2019-03-01T17:52:44.319Z,23.90
2019-03-01T17:55:13.140Z,23.30
2019-03-01T17:57:41.906Z,25.20
2019-03-01T18:00:13.643Z,25.00
2019-03-01T18:02:42.738Z,26.13
2019-03-01T18:05:11.983Z,26.10
2019-03-01T18:07:40.873Z,26.17
2019-03-01T18:10:11.001Z,27.17
2019-03-01T18:12:39.818Z,28.07
2019-03-01T18:15:12.398Z,26.33
2019-03-01T18:17:40.713Z,26.30
2019-03-01T18:20:09.992Z,23.93
2019-03-01T18:22:39.304Z,22.13
2019-03-01T18:25:09.412Z,22.63
2019-03-01T18:27:38.456Z,22.33
2019-03-01T18:30:11.060Z,22.37
2019-03-01T18:32:41.826Z,21.03
2019-03-01T18:35:11.502Z,20.03
2019-03-01T18:37:41.343Z,20.40
2019-03-01T18:40:13.381Z,20.37
2019-03-01T18:42:41.879Z,19.57
2019-03-01T18:45:13.148Z,21.87
2019-03-01T18:47:42.082Z,20.43
2019-03-01T18:50:17.056Z,19.33
2019-03-01T18:52:46.079Z,18.47
2019-03-01T18:55:17.494Z,19.93
2019-03-01T18:57:45.347Z,20.23
2019-03-01T19:00:17.079Z,19.70
2019-03-01T19:02:46.071Z,19.57
2019-03-01T19:05:14.867Z,19.73
2019-03-01T19:07:43.627Z,19.93
2019-03-01T19:10:12.593Z,20.07
2019-03-01T19:12:44.923Z,18.73
2019-03-01T19:15:15.631Z,19.50
2019-03-01T19:17:44.556Z,20.37
2019-03-01T19:20:16.169Z,19.83
2019-03-01T19:22:45.012Z,20.53
2019-03-01T19:25:14.284Z,18.37
2019-03-01T19:27:46.826Z,18.40
2019-03-01T19:30:16.079Z,18.77
2019-03-01T19:32:44.855Z,20.73
2019-03-01T19:35:14.056Z,19.77
2019-03-01T19:37:45.825Z,18.30
2019-03-01T19:40:18.010Z,18.60
2019-03-01T19:42:47.359Z,18.60
2019-03-01T19:45:16.707Z,18.43
2019-03-01T19:47:46.208Z,19.80
2019-03-01T19:50:16.746Z,19.50
2019-03-01T19:52:47.109Z,19.00
2019-03-01T19:55:16.282Z,18.40
2019-03-01T19:57:45.147Z,18.47
2019-03-01T20:00:16.684Z,17.80
2019-03-01T20:02:45.680Z,18.03
2019-03-01T20:05:16.043Z,17.77
2019-03-01T20:07:44.887Z,17.30
2019-03-01T20:10:15.993Z,18.60
2019-03-01T20:12:45.364Z,17.53
2019-03-01T20:15:16.676Z,17.53
2019-03-01T20:17:45.971Z,16.73
2019-03-01T20:20:18.990Z,17.80
2019-03-01T20:22:50.463Z,17.33
2019-03-01T20:25:19.199Z,16.93
2019-03-01T20:27:48.042Z,17.73
2019-03-01T20:30:21.206Z,17.33
2019-03-01T20:32:51.104Z,17.63
2019-03-01T20:35:20.889Z,18.07
2019-03-01T20:37:49.971Z,17.80
2019-03-01T20:40:18.993Z,17.70
2019-03-01T20:42:47.934Z,17.90
2019-03-01T20:45:19.428Z,16.43
2019-03-01T20:47:50.435Z,15.50
2019-03-01T20:50:18.832Z,15.57
2019-03-01T20:52:47.695Z,15.40
2019-03-01T20:55:16.528Z,15.23
2019-03-01T20:57:45.308Z,17.67
2019-03-01T21:00:15.520Z,15.93
2019-03-01T21:02:46.888Z,15.37
2019-03-01T21:05:14.937Z,16.40
2019-03-01T21:07:43.839Z,17.33
2019-03-01T21:10:15.990Z,16.93
2019-03-01T21:12:45.878Z,16.53
2019-03-01T21:15:15.239Z,15.23
2019-03-01T21:17:44.111Z,16.97
2019-03-01T21:20:15.930Z,17.03
2019-03-01T21:22:43.820Z,17.80
2019-03-01T21:25:13.866Z,16.77
2019-03-01T21:27:42.740Z,17.23
2019-03-01T21:30:17.328Z,15.83
2019-03-01T21:32:47.009Z,17.03
2019-03-01T21:35:16.894Z,17.03
2019-03-01T21:37:45.696Z,16.77
2019-03-01T21:40:14.921Z,15.93
2019-03-01T21:42:44.455Z,16.07
2019-03-01T21:45:17.866Z,16.73
2019-03-01T21:47:48.036Z,15.40
2019-03-01T21:50:19.104Z,15.97
2019-03-01T21:52:47.963Z,16.40
2019-03-01T21:55:16.755Z,16.40
2019-03-01T21:57:46.221Z,14.90
